createdAt,value
2019-06-01T00:01:07.712Z,12.20
2019-06-01T00:05:16.950Z,12.10
2019-06-01T00:09:26.129Z,12.10
2019-06-01T00:13:35.220Z,12.00
2019-06-01T00:17:44.072Z,12.00
2019-06-01T00:21:54.244Z,11.90
2019-06-01T00:26:03.225Z,11.90
2019-06-01T00:30:26.202Z,11.70
2019-06-01T00:34:22.940Z,11.50
2019-06-01T00:38:31.775Z,11.40
2019-06-01T00:42:41.963Z,11.40
2019-06-01T00:46:51.166Z,11.30
2019-06-01T00:51:00.133Z,11.20
2019-06-01T00:55:09.264Z,11.20
2019-06-01T00:59:18.120Z,11.10
2019-06-01T01:03:27.039Z,11.10
2019-06-01T01:07:38.208Z,11.10
2019-06-01T01:11:46.984Z,11.10
2019-06-01T01:15:56.123Z,11.10
2019-06-01T01:20:05.177Z,11.10
2019-06-01T01:29:22.842Z,10.90
2019-06-01T01:33:31.783Z,10.70
2019-06-01T01:37:40.767Z,10.60
2019-06-01T01:41:50.030Z,10.60
2019-06-01T01:45:59.065Z,10.50
2019-06-01T01:50:10.084Z,10.40
2019-06-01T01:54:18.892Z,10.40
2019-06-01T01:58:27.711Z,10.40
2019-06-01T02:02:36.601Z,10.40
2019-06-01T02:06:45.761Z,10.40
2019-06-01T02:10:55.425Z,10.40
2019-06-01T02:15:05.303Z,10.40
2019-06-01T02:19:14.111Z,10.30
2019-06-01T02:23:23.359Z,10.20
2019-06-01T02:27:32.245Z,10.20
2019-06-01T02:31:42.847Z,10.20
2019-06-01T02:35:51.689Z,10.20
2019-06-01T02:40:00.948Z,10.10
2019-06-01T02:44:09.925Z,10.00
2019-06-01T02:48:18.831Z,10.00
2019-06-01T02:52:27.647Z,9.90
2019-06-01T02:56:36.596Z,9.90
2019-06-01T03:01:20.555Z,9.80
2019-06-01T03:05:29.604Z,9.70
2019-06-01T03:09:40.743Z,9.60
2019-06-01T03:13:52.632Z,9.50
2019-06-01T03:18:03.847Z,9.60
2019-06-01T03:22:15.148Z,9.50
2019-06-01T03:26:25.795Z,9.50
2019-06-01T03:30:45.535Z,9.50
2019-06-01T03:34:53.299Z,9.50
2019-06-01T03:39:03.984Z,9.40
2019-06-01T03:43:13.477Z,9.50
2019-06-01T03:47:22.453Z,9.50
2019-06-01T03:51:31.347Z,9.60
2019-06-01T03:55:40.420Z,9.60
2019-06-01T03:59:49.230Z,9.70
2019-06-01T04:03:58.112Z,9.90
2019-06-01T04:08:07.515Z,9.90
2019-06-01T04:12:16.539Z,10.30
2019-06-01T04:16:25.492Z,10.90
2019-06-01T04:20:34.316Z,11.30
2019-06-01T04:24:43.196Z,11.70
2019-06-01T04:28:52.024Z,11.80
2019-06-01T04:33:00.846Z,11.70
2019-06-01T04:37:11.214Z,11.60
2019-06-01T04:41:20.236Z,11.50
2019-06-01T04:45:29.115Z,11.50
2019-06-01T04:49:37.935Z,11.70
2019-06-01T04:53:46.836Z,12.20
2019-06-01T04:57:55.713Z,12.60
2019-06-01T05:02:05.630Z,13.00
2019-06-01T05:06:15.449Z,13.40
2019-06-01T05:10:24.418Z,14.00
2019-06-01T05:14:33.392Z,14.80
2019-06-01T05:18:42.387Z,15.00
2019-06-01T05:22:51.268Z,14.40
2019-06-01T05:27:00.171Z,14.00
2019-06-01T05:31:13.316Z,13.70
2019-06-01T05:35:20.059Z,13.50
2019-06-01T05:39:29.088Z,13.50
2019-06-01T05:43:38.085Z,13.60
2019-06-01T05:47:46.995Z,13.80
2019-06-01T05:51:55.893Z,14.00
2019-06-01T05:56:04.790Z,14.30
2019-06-01T06:00:15.054Z,14.50
2019-06-01T06:04:24.314Z,14.70
2019-06-01T06:08:33.214Z,14.90
2019-06-01T06:12:42.164Z,15.10
2019-06-01T06:16:51.120Z,15.40
2019-06-01T06:20:59.931Z,15.70
2019-06-01T06:25:08.893Z,16.10
2019-06-01T06:29:18.838Z,16.50
2019-06-01T06:33:28.375Z,16.80
2019-06-01T06:37:37.254Z,17.30
2019-06-01T06:41:46.231Z,17.70
2019-06-01T06:45:55.254Z,18.10
2019-06-01T06:50:04.516Z,18.50
2019-06-01T06:54:14.965Z,18.90
2019-06-01T06:58:26.389Z,19.30
2019-06-01T07:02:35.403Z,19.60
2019-06-01T07:06:44.323Z,20.00
2019-06-01T07:10:53.618Z,20.30
2019-06-01T07:15:02.439Z,20.50
2019-06-01T07:19:11.267Z,21.00
2019-06-01T07:23:20.208Z,21.30
2019-06-01T07:27:29.329Z,21.60
2019-06-01T07:31:38.299Z,22.00
2019-06-01T07:35:47.125Z,22.30
2019-06-01T07:39:56.023Z,22.40
2019-06-01T07:44:05.242Z,22.60
2019-06-01T07:48:14.343Z,22.80
2019-06-01T07:52:24.215Z,23.00
2019-06-01T07:56:33.178Z,23.30
2019-06-01T08:00:42.260Z,23.50
2019-06-01T08:04:54.423Z,23.70
2019-06-01T08:09:01.945Z,23.80
2019-06-01T08:13:10.767Z,23.90
2019-06-01T08:17:19.600Z,23.90
2019-06-01T08:21:28.611Z,24.00
2019-06-01T08:25:37.527Z,24.20
2019-06-01T08:29:46.462Z,24.30
2019-06-01T08:33:55.512Z,24.10
2019-06-01T08:38:04.392Z,24.10
2019-06-01T08:42:13.311Z,24.10
2019-06-01T08:46:23.565Z,24.30
2019-06-01T08:50:33.967Z,24.50
2019-06-01T08:54:42.977Z,24.70
2019-06-01T08:58:51.798Z,25.20
2019-06-01T09:03:00.657Z,25.60
2019-06-01T09:07:09.910Z,25.60
2019-06-01T09:11:19.124Z,25.60
2019-06-01T09:15:29.719Z,25.60
2019-06-01T09:19:39.043Z,25.70
2019-06-01T09:23:48.250Z,26.00
2019-06-01T09:27:57.462Z,26.00
2019-06-01T09:32:10.647Z,26.50
2019-06-01T09:36:17.534Z,26.70
2019-06-01T09:40:28.228Z,27.10
2019-06-01T09:44:38.171Z,27.00
2019-06-01T09:48:47.307Z,26.90
2019-06-01T09:52:56.558Z,27.30
2019-06-01T09:57:06.112Z,27.60
2019-06-01T10:01:15.371Z,27.70
2019-06-01T10:05:24.620Z,27.80
2019-06-01T10:09:33.683Z,28.20
2019-06-01T10:13:42.811Z,28.40
2019-06-01T10:17:51.678Z,28.50
2019-06-01T10:22:00.532Z,28.60
2019-06-01T10:26:09.395Z,28.80
2019-06-01T10:30:18.629Z,28.50
2019-06-01T10:34:27.623Z,28.10
2019-06-01T10:38:37.407Z,28.20
2019-06-01T10:42:46.392Z,28.10
2019-06-01T10:46:56.050Z,27.60
2019-06-01T10:51:05.311Z,27.60
2019-06-01T10:55:15.139Z,28.00
2019-06-01T10:59:24.371Z,28.30
2019-06-01T11:03:34.628Z,28.80
2019-06-01T11:07:43.896Z,29.40
2019-06-01T11:11:53.015Z,29.80
2019-06-01T11:16:02.400Z,30.10
2019-06-01T11:20:12.102Z,29.90
2019-06-01T11:24:21.492Z,29.70
2019-06-01T11:28:30.990Z,29.60
2019-06-01T11:32:41.901Z,29.40
2019-06-01T11:37:04.458Z,29.70
2019-06-01T11:41:01.891Z,30.10
2019-06-01T11:45:11.467Z,30.50
2019-06-01T11:49:21.483Z,30.60
2019-06-01T11:53:30.559Z,30.30
2019-06-01T11:57:39.617Z,30.70
2019-06-01T12:01:48.498Z,30.80
2019-06-01T12:05:57.311Z,31.10
2019-06-01T12:10:07.861Z,31.20
2019-06-01T12:14:16.856Z,31.20
2019-06-01T12:18:25.816Z,31.20
2019-06-01T12:22:34.804Z,31.30
2019-06-01T12:26:43.593Z,31.20
2019-06-01T12:30:52.547Z,31.30
2019-06-01T12:35:03.393Z,31.20
2019-06-01T12:39:12.145Z,31.30
2019-06-01T12:43:21.390Z,31.30
2019-06-01T12:47:30.311Z,31.50
2019-06-01T12:51:40.575Z,31.40
2019-06-01T12:55:49.627Z,31.70
2019-06-01T12:59:58.596Z,31.90
2019-06-01T13:04:07.660Z,31.70
2019-06-01T13:08:17.552Z,31.70
2019-06-01T13:12:26.403Z,31.60
2019-06-01T13:16:35.397Z,31.80
2019-06-01T13:20:45.386Z,31.70
2019-06-01T13:24:54.867Z,31.50
2019-06-01T13:29:04.209Z,31.70
2019-06-01T13:33:14.998Z,31.70
2019-06-01T13:37:23.973Z,32.00
2019-06-01T13:41:32.945Z,32.50
2019-06-01T13:45:43.064Z,32.70
2019-06-01T13:49:52.129Z,32.50
2019-06-01T13:54:01.115Z,32.40
2019-06-01T13:58:10.046Z,32.40
2019-06-01T14:02:18.852Z,32.50
2019-06-01T14:06:27.976Z,32.20
2019-06-01T14:10:36.791Z,32.20
2019-06-01T14:14:45.600Z,32.40
2019-06-01T14:18:55.975Z,32.50
2019-06-01T14:23:05.253Z,32.60
2019-06-01T14:27:14.896Z,32.50
2019-06-01T14:31:23.771Z,32.50
2019-06-01T14:35:35.697Z,32.60
2019-06-01T14:39:43.191Z,32.70
2019-06-01T14:43:52.161Z,32.70
2019-06-01T14:48:01.858Z,32.70
2019-06-01T14:52:10.726Z,32.60
2019-06-01T14:56:19.650Z,32.60
2019-06-01T15:00:29.959Z,32.40
2019-06-01T15:04:38.748Z,32.60
2019-06-01T15:09:08.745Z,32.80
2019-06-01T15:13:02.650Z,32.40
2019-06-01T15:17:09.216Z,32.40
2019-06-01T15:21:18.084Z,32.70
2019-06-01T15:25:26.959Z,32.80
2019-06-01T15:29:36.116Z,32.60
2019-06-01T15:33:44.919Z,32.70
2019-06-01T15:37:58.384Z,32.80
2019-06-01T15:42:04.473Z,32.80
2019-06-01T15:46:13.308Z,32.50
2019-06-01T15:50:22.179Z,32.60
2019-06-01T15:54:31.324Z,32.40
2019-06-01T15:58:52.228Z,32.20
2019-06-01T16:02:50.915Z,32.10
2019-06-01T16:06:59.725Z,32.20
2019-06-01T16:11:08.538Z,31.80
2019-06-01T16:15:17.511Z,31.40
2019-06-01T16:19:26.307Z,31.10
2019-06-01T16:23:49.420Z,30.90
2019-06-01T16:27:45.759Z,30.60
2019-06-01T16:31:54.811Z,30.40
2019-06-01T16:36:04.257Z,30.30
2019-06-01T16:40:15.743Z,30.30
2019-06-01T16:44:24.631Z,30.30
2019-06-01T16:48:33.595Z,30.30
2019-06-01T16:52:42.579Z,30.10
2019-06-01T16:56:51.457Z,30.00
2019-06-01T17:01:00.538Z,30.20
2019-06-01T17:05:09.988Z,30.80
2019-06-01T17:09:19.192Z,31.80
2019-06-01T17:13:28.023Z,33.10
2019-06-01T17:17:36.988Z,34.20
2019-06-01T17:22:05.615Z,34.70
2019-06-01T17:26:14.537Z,35.40
2019-06-01T17:30:23.449Z,36.20
2019-06-01T17:34:32.461Z,36.80
2019-06-01T17:38:41.240Z,36.80
2019-06-01T17:42:49.991Z,37.20
2019-06-01T17:46:59.919Z,37.40
2019-06-01T17:51:08.914Z,37.30
2019-06-01T17:55:43.042Z,37.20
2019-06-01T17:59:51.877Z,36.90
2019-06-01T18:04:01.760Z,36.60
2019-06-01T18:08:10.691Z,36.60
2019-06-01T18:12:19.634Z,36.60
2019-06-01T18:16:28.465Z,37.00
2019-06-01T18:20:37.999Z,37.10
2019-06-01T18:24:46.769Z,37.10
2019-06-01T18:28:55.618Z,36.50
2019-06-01T18:33:05.002Z,36.40
2019-06-01T18:37:13.803Z,35.50
2019-06-01T18:41:22.727Z,32.70
2019-06-01T18:45:32.397Z,30.70
2019-06-01T18:49:41.640Z,29.30
2019-06-01T18:53:50.714Z,28.20
2019-06-01T18:58:01.685Z,27.40
2019-06-01T19:02:10.605Z,26.70
2019-06-01T19:06:19.425Z,26.10
2019-06-01T19:10:28.490Z,25.60
2019-06-01T19:14:37.409Z,25.20
2019-06-01T19:18:46.374Z,24.80
2019-06-01T19:22:55.351Z,24.50
2019-06-01T19:27:04.610Z,24.10
2019-06-01T19:31:13.430Z,23.80
2019-06-01T19:35:22.406Z,23.50
2019-06-01T19:39:32.406Z,23.20
2019-06-01T19:43:41.362Z,22.90
2019-06-01T19:47:50.157Z,22.60
2019-06-01T19:51:58.927Z,22.40
2019-06-01T19:56:08.810Z,22.10
2019-06-01T20:00:18.575Z,21.90
2019-06-01T20:04:27.529Z,21.70
2019-06-01T20:08:36.391Z,21.40
2019-06-01T20:12:45.149Z,21.30
2019-06-01T20:16:53.978Z,21.10
2019-06-01T20:21:02.746Z,20.90
2019-06-01T20:25:11.762Z,20.70
2019-06-01T20:29:21.719Z,20.50
2019-06-01T20:33:30.591Z,20.30
2019-06-01T20:37:39.754Z,20.20
2019-06-01T20:41:48.796Z,20.00
2019-06-01T20:45:57.639Z,20.00
2019-06-01T20:50:09.645Z,19.80
2019-06-01T20:54:19.039Z,19.60
2019-06-01T20:58:28.325Z,19.50
2019-06-01T21:02:37.292Z,19.30
2019-06-01T21:06:46.093Z,19.10
2019-06-01T21:10:54.941Z,18.90
2019-06-01T21:15:04.169Z,18.80
2019-06-01T21:19:14.102Z,18.60
2019-06-01T21:23:23.136Z,18.50
2019-06-01T21:27:32.056Z,18.50
2019-06-01T21:31:40.827Z,18.40
2019-06-01T21:35:49.609Z,18.40
2019-06-01T21:39:58.377Z,18.30
2019-06-01T21:44:07.209Z,18.20
2019-06-01T21:48:15.982Z,18.10
2019-06-01T21:52:26.242Z,18.10
2019-06-01T21:56:35.270Z,18.00
2019-06-01T22:00:45.768Z,17.90
2019-06-01T22:04:54.554Z,17.80
2019-06-01T22:09:04.649Z,17.70
2019-06-01T22:13:18.704Z,17.60
2019-06-01T22:17:23.949Z,17.50
2019-06-01T22:21:32.745Z,17.40
2019-06-01T22:25:41.515Z,17.40
2019-06-01T22:29:50.277Z,17.30
2019-06-01T22:33:59.301Z,17.20
2019-06-01T22:38:08.147Z,17.00
2019-06-01T22:42:16.992Z,16.90
2019-06-01T22:46:26.803Z,16.70
2019-06-01T22:50:35.718Z,16.60
2019-06-01T22:54:44.837Z,16.50
2019-06-01T22:58:53.614Z,16.40
2019-06-01T23:03:02.409Z,16.30
2019-06-01T23:07:11.288Z,16.30
2019-06-01T23:11:21.271Z,16.20
2019-06-01T23:15:30.207Z,16.20
2019-06-01T23:19:38.984Z,16.20
2019-06-01T23:23:47.854Z,16.10
2019-06-01T23:27:56.651Z,16.10
2019-06-01T23:32:05.414Z,16.00
2019-06-01T23:36:14.273Z,15.90
2019-06-01T23:40:23.041Z,15.90
2019-06-01T23:44:33.985Z,15.90
2019-06-01T23:48:42.373Z,15.70
2019-06-01T23:52:51.182Z,15.60
2019-06-01T23:56:59.953Z,15.50
